sensor_id;sensor_type;location;lat;lon;timestamp;P1;durP1;ratioP1;P2;durP2;ratioP2
12210;SDS011;6168;42.658;23.298;2022-07-22T04:02:49;8.35;;;4.43;;
12210;SDS011;6168;42.658;23.298;2022-07-22T04:05:16;9.85;;;4.25;;
12210;SDS011;6168;42.658;23.298;2022-07-22T04:07:43;11.02;;;4.25;;
12210;SDS011;6168;42.658;23.298;2022-07-22T04:10:10;9.98;;;4.15;;
12210;SDS011;6168;42.658;23.298;2022-07-22T04:12:37;7.50;;;4.10;;
12210;SDS011;6168;42.658;23.298;2022-07-22T04:15:06;6.57;;;4.75;;
12210;SDS011;6168;42.658;23.298;2022-07-22T04:17:34;9.50;;;4.57;;
12210;SDS011;6168;42.658;23.298;2022-07-22T04:20:03;8.20;;;4.60;;
12210;SDS011;6168;42.658;23.298;2022-07-22T04:22:31;7.43;;;4.50;;
12210;SDS011;6168;42.658;23.298;2022-07-22T04:24:58;7.95;;;4.80;;
12210;SDS011;6168;42.658;23.298;2022-07-22T04:27:25;4.68;;;4.10;;
12210;SDS011;6168;42.658;23.298;2022-07-22T04:29:52;13.30;;;4.82;;
12210;SDS011;6168;42.658;23.298;2022-07-22T04:32:19;7.15;;;4.55;;
12210;SDS011;6168;42.658;23.298;2022-07-22T04:34:45;7.18;;;4.97;;
12210;SDS011;6168;42.658;23.298;2022-07-22T04:37:14;5.15;;;4.68;;
12210;SDS011;6168;42.658;23.298;2022-07-22T04:39:41;9.38;;;5.43;;
12210;SDS011;6168;42.658;23.298;2022-07-22T04:42:08;7.65;;;5.00;;
12210;SDS011;6168;42.658;23.298;2022-07-22T04:44:34;11.40;;;4.60;;
12210;SDS011;6168;42.658;23.298;2022-07-22T04:47:01;6.88;;;5.20;;
12210;SDS011;6168;42.658;23.298;2022-07-22T04:49:28;7.05;;;4.65;;
12210;SDS011;6168;42.658;23.298;2022-07-22T04:51:55;9.25;;;4.78;;
12210;SDS011;6168;42.658;23.298;2022-07-22T04:54:24;7.15;;;5.13;;
12210;SDS011;6168;42.658;23.298;2022-07-22T04:56:51;5.55;;;5.05;;
12210;SDS011;6168;42.658;23.298;2022-07-22T04:59:18;10.63;;;4.53;;
12210;SDS011;6168;42.658;23.298;2022-07-22T05:01:45;7.88;;;6.20;;
12210;SDS011;6168;42.658;23.298;2022-07-22T05:04:12;6.18;;;4.72;;
12210;SDS011;6168;42.658;23.298;2022-07-22T05:06:39;7.13;;;4.53;;
12210;SDS011;6168;42.658;23.298;2022-07-22T05:09:06;7.68;;;4.82;;
12210;SDS011;6168;42.658;23.298;2022-07-22T05:11:34;7.35;;;3.80;;
12210;SDS011;6168;42.658;23.298;2022-07-22T05:14:01;10.63;;;4.35;;
12210;SDS011;6168;42.658;23.298;2022-07-22T05:16:28;8.50;;;4.15;;
12210;SDS011;6168;42.658;23.298;2022-07-22T05:18:55;6.38;;;4.55;;
12210;SDS011;6168;42.658;23.298;2022-07-22T05:21:22;5.95;;;5.07;;
12210;SDS011;6168;42.658;23.298;2022-07-22T05:23:49;7.82;;;4.60;;
12210;SDS011;6168;42.658;23.298;2022-07-22T05:26:16;7.93;;;4.72;;
12210;SDS011;6168;42.658;23.298;2022-07-22T05:28:44;6.60;;;5.13;;
12210;SDS011;6168;42.658;23.298;2022-07-22T05:31:11;5.38;;;4.80;;
12210;SDS011;6168;42.658;23.298;2022-07-22T05:33:38;13.40;;;5.63;;
12210;SDS011;6168;42.658;23.298;2022-07-22T05:36:05;7.75;;;4.30;;
12210;SDS011;6168;42.658;23.298;2022-07-22T05:38:34;9.55;;;4.03;;
12210;SDS011;6168;42.658;23.298;2022-07-22T05:41:01;5.80;;;4.60;;
12210;SDS011;6168;42.658;23.298;2022-07-22T05:43:28;7.18;;;4.70;;
12210;SDS011;6168;42.658;23.298;2022-07-22T05:45:57;8.93;;;4.60;;
12210;SDS011;6168;42.658;23.298;2022-07-22T05:48:24;11.45;;;4.15;;
12210;SDS011;6168;42.658;23.298;2022-07-22T05:50:50;4.25;;;3.80;;
12210;SDS011;6168;42.658;23.298;2022-07-22T05:53:17;5.47;;;3.97;;
12210;SDS011;6168;42.658;23.298;2022-07-22T05:55:44;6.38;;;4.55;;
12210;SDS011;6168;42.658;23.298;2022-07-22T05:58:11;8.98;;;4.07;;
12210;SDS011;6168;42.658;23.298;2022-07-22T06:00:38;8.13;;;4.07;;
12210;SDS011;6168;42.658;23.298;2022-07-22T06:03:07;12.30;;;4.18;;
12210;SDS011;6168;42.658;23.298;2022-07-22T06:05:33;6.70;;;4.35;;
12210;SDS011;6168;42.658;23.298;2022-07-22T06:08:02;4.95;;;3.70;;
12210;SDS011;6168;42.658;23.298;2022-07-22T06:10:29;9.55;;;3.33;;
12210;SDS011;6168;42.658;23.298;2022-07-22T06:12:56;11.02;;;3.15;;
12210;SDS011;6168;42.658;23.298;2022-07-22T06:15:23;5.93;;;3.47;;
12210;SDS011;6168;42.658;23.298;2022-07-22T06:17:50;11.32;;;3.20;;
12210;SDS011;6168;42.658;23.298;2022-07-22T06:20:18;9.52;;;3.92;;
12210;SDS011;6168;42.658;23.298;2022-07-22T06:22:45;12.73;;;4.03;;
12210;SDS011;6168;42.658;23.298;2022-07-22T06:25:12;6.40;;;3.13;;
12210;SDS011;6168;42.658;23.298;2022-07-22T06:27:39;5.88;;;3.40;;
12210;SDS011;6168;42.658;23.298;2022-07-22T06:30:06;11.60;;;3.22;;
12210;SDS011;6168;42.658;23.298;2022-07-22T06:32:34;12.02;;;3.88;;
12210;SDS011;6168;42.658;23.298;2022-07-22T06:35:01;7.40;;;3.55;;
12210;SDS011;6168;42.658;23.298;2022-07-22T06:37:29;9.15;;;3.60;;
12210;SDS011;6168;42.658;23.298;2022-07-22T06:39:56;12.77;;;3.80;;
12210;SDS011;6168;42.658;23.298;2022-07-22T06:42:23;8.20;;;3.33;;
12210;SDS011;6168;42.658;23.298;2022-07-22T06:44:50;11.95;;;3.38;;
12210;SDS011;6168;42.658;23.298;2022-07-22T06:47:17;7.70;;;2.80;;
12210;SDS011;6168;42.658;23.298;2022-07-22T06:49:44;7.13;;;3.40;;
12210;SDS011;6168;42.658;23.298;2022-07-22T06:52:11;5.65;;;2.95;;
12210;SDS011;6168;42.658;23.298;2022-07-22T06:54:39;6.00;;;2.38;;
12210;SDS011;6168;42.658;23.298;2022-07-22T06:57:06;5.38;;;2.05;;
12210;SDS011;6168;42.658;23.298;2022-07-22T06:59:33;10.65;;;3.20;;
12210;SDS011;6168;42.658;23.298;2022-07-22T07:02:00;3.80;;;2.20;;
12210;SDS011;6168;42.658;23.298;2022-07-22T07:04:27;3.22;;;2.40;;
12210;SDS011;6168;42.658;23.298;2022-07-22T07:06:54;5.95;;;2.40;;
12210;SDS011;6168;42.658;23.298;2022-07-22T07:09:20;4.93;;;2.83;;
12210;SDS011;6168;42.658;23.298;2022-07-22T07:11:49;4.43;;;2.00;;
12210;SDS011;6168;42.658;23.298;2022-07-22T07:14:16;4.97;;;1.08;;
12210;SDS011;6168;42.658;23.298;2022-07-22T07:16:43;6.88;;;1.45;;
12210;SDS011;6168;42.658;23.298;2022-07-22T07:19:09;4.15;;;0.80;;
12210;SDS011;6168;42.658;23.298;2022-07-22T07:21:37;3.03;;;1.45;;
12210;SDS011;6168;42.658;23.298;2022-07-22T07:24:04;5.50;;;1.80;;
12210;SDS011;6168;42.658;23.298;2022-07-22T07:26:31;6.47;;;1.85;;
12210;SDS011;6168;42.658;23.298;2022-07-22T07:28:59;3.67;;;2.08;;
12210;SDS011;6168;42.658;23.298;2022-07-22T07:31:26;1.83;;;1.50;;
12210;SDS011;6168;42.658;23.298;2022-07-22T07:33:53;11.43;;;2.28;;
12210;SDS011;6168;42.658;23.298;2022-07-22T07:36:20;1.80;;;1.70;;
12210;SDS011;6168;42.658;23.298;2022-07-22T07:38:47;11.02;;;1.55;;
12210;SDS011;6168;42.658;23.298;2022-07-22T07:41:14;7.10;;;1.58;;
12210;SDS011;6168;42.658;23.298;2022-07-22T07:43:41;1.40;;;1.30;;
12210;SDS011;6168;42.658;23.298;2022-07-22T07:46:09;7.18;;;1.27;;
12210;SDS011;6168;42.658;23.298;2022-07-22T07:48:36;4.97;;;1.13;;
12210;SDS011;6168;42.658;23.298;2022-07-22T07:51:03;5.20;;;1.15;;
12210;SDS011;6168;42.658;23.298;2022-07-22T07:53:31;6.55;;;1.45;;
12210;SDS011;6168;42.658;23.298;2022-07-22T07:55:58;2.00;;;1.25;;
12210;SDS011;6168;42.658;23.298;2022-07-22T07:58:25;2.63;;;0.88;;
12210;SDS011;6168;42.658;23.298;2022-07-22T08:00:52;4.82;;;1.27;;
12210;SDS011;6168;42.658;23.298;2022-07-22T08:03:20;7.55;;;1.85;;
12210;SDS011;6168;42.658;23.298;2022-07-22T08:05:47;26.33;;;2.67;;
12210;SDS011;6168;42.658;23.298;2022-07-22T08:08:14;5.20;;;1.58;;
12210;SDS011;6168;42.658;23.298;2022-07-22T08:10:41;15.77;;;3.78;;
12210;SDS011;6168;42.658;23.298;2022-07-22T08:13:09;4.32;;;1.10;;
12210;SDS011;6168;42.658;23.298;2022-07-22T08:15:36;1.25;;;0.82;;
12210;SDS011;6168;42.658;23.298;2022-07-22T08:18:03;6.13;;;1.67;;
12210;SDS011;6168;42.658;23.298;2022-07-22T08:20:32;1.48;;;1.02;;
12210;SDS011;6168;42.658;23.298;2022-07-22T08:22:58;3.05;;;0.90;;
12210;SDS011;6168;42.658;23.298;2022-07-22T08:25:25;3.33;;;1.17;;
12210;SDS011;6168;42.658;23.298;2022-07-22T08:27:53;2.03;;;1.35;;
12210;SDS011;6168;42.658;23.298;2022-07-22T08:30:20;3.78;;;1.38;;
12210;SDS011;6168;42.658;23.298;2022-07-22T08:32:52;5.53;;;1.52;;
12210;SDS011;6168;42.658;23.298;2022-07-22T08:35:19;3.33;;;1.45;;
12210;SDS011;6168;42.658;23.298;2022-07-22T08:37:47;2.60;;;1.30;;
12210;SDS011;6168;42.658;23.298;2022-07-22T08:40:14;3.35;;;1.38;;
12210;SDS011;6168;42.658;23.298;2022-07-22T08:42:43;1.20;;;1.10;;
12210;SDS011;6168;42.658;23.298;2022-07-22T08:45:11;3.65;;;1.48;;
12210;SDS011;6168;42.658;23.298;2022-07-22T08:47:38;8.90;;;1.67;;
12210;SDS011;6168;42.658;23.298;2022-07-22T08:50:06;6.15;;;1.40;;
12210;SDS011;6168;42.658;23.298;2022-07-22T08:52:33;6.50;;;1.50;;
12210;SDS011;6168;42.658;23.298;2022-07-22T08:55:03;2.35;;;1.20;;
12210;SDS011;6168;42.658;23.298;2022-07-22T08:57:31;2.10;;;1.33;;
12210;SDS011;6168;42.658;23.298;2022-07-22T08:59:58;4.25;;;1.15;;
12210;SDS011;6168;42.658;23.298;2022-07-22T09:02:26;5.25;;;1.55;;
12210;SDS011;6168;42.658;23.298;2022-07-22T09:05:02;6.30;;;1.50;;
12210;SDS011;6168;42.658;23.298;2022-07-22T09:07:31;1.52;;;1.30;;
12210;SDS011;6168;42.658;23.298;2022-07-22T09:10:00;2.10;;;1.38;;
12210;SDS011;6168;42.658;23.298;2022-07-22T09:12:31;5.05;;;1.40;;
12210;SDS011;6168;42.658;23.298;2022-07-22T09:15:00;3.30;;;0.85;;
12210;SDS011;6168;42.658;23.298;2022-07-22T09:17:28;1.17;;;1.10;;
12210;SDS011;6168;42.658;23.298;2022-07-22T09:20:01;2.35;;;1.40;;
12210;SDS011;6168;42.658;23.298;2022-07-22T09:22:31;1.95;;;1.50;;
12210;SDS011;6168;42.658;23.298;2022-07-22T09:27:51;2.65;;;1.23;;
12210;SDS011;6168;42.658;23.298;2022-07-22T09:30:20;3.80;;;1.63;;
12210;SDS011;6168;42.658;23.298;2022-07-22T09:32:49;1.88;;;1.42;;
12210;SDS011;6168;42.658;23.298;2022-07-22T09:35:16;6.45;;;2.60;;
12210;SDS011;6168;42.658;23.298;2022-07-22T09:37:48;2.35;;;1.30;;
12210;SDS011;6168;42.658;23.298;2022-07-22T09:40:16;4.20;;;1.63;;
12210;SDS011;6168;42.658;23.298;2022-07-22T09:42:50;2.08;;;1.75;;
12210;SDS011;6168;42.658;23.298;2022-07-22T09:45:19;3.38;;;1.55;;
12210;SDS011;6168;42.658;23.298;2022-07-22T09:47:47;1.33;;;1.23;;
12210;SDS011;6168;42.658;23.298;2022-07-22T09:50:15;3.08;;;1.40;;
12210;SDS011;6168;42.658;23.298;2022-07-22T09:52:44;4.93;;;2.15;;
12210;SDS011;6168;42.658;23.298;2022-07-22T09:55:12;3.25;;;1.90;;
12210;SDS011;6168;42.658;23.298;2022-07-22T09:57:40;2.83;;;1.75;;
12210;SDS011;6168;42.658;23.298;2022-07-22T10:00:09;2.25;;;1.40;;
12210;SDS011;6168;42.658;23.298;2022-07-22T10:02:39;3.78;;;1.80;;
12210;SDS011;6168;42.658;23.298;2022-07-22T10:05:11;6.75;;;1.80;;
12210;SDS011;6168;42.658;23.298;2022-07-22T10:07:40;4.32;;;2.05;;
12210;SDS011;6168;42.658;23.298;2022-07-22T10:10:13;2.65;;;1.30;;
12210;SDS011;6168;42.658;23.298;2022-07-22T10:12:42;1.92;;;1.60;;
12210;SDS011;6168;42.658;23.298;2022-07-22T10:15:11;3.05;;;1.42;;
12210;SDS011;6168;42.658;23.298;2022-07-22T10:17:40;2.50;;;1.70;;
12210;SDS011;6168;42.658;23.298;2022-07-22T10:20:09;2.33;;;1.40;;
12210;SDS011;6168;42.658;23.298;2022-07-22T10:22:48;2.40;;;2.08;;
12210;SDS011;6168;42.658;23.298;2022-07-22T10:25:16;4.65;;;1.98;;
12210;SDS011;6168;42.658;23.298;2022-07-22T10:27:45;2.65;;;1.10;;
12210;SDS011;6168;42.658;23.298;2022-07-22T10:30:17;2.10;;;1.23;;
12210;SDS011;6168;42.658;23.298;2022-07-22T10:32:46;1.50;;;1.40;;
12210;SDS011;6168;42.658;23.298;2022-07-22T10:35:30;1.45;;;1.20;;
12210;SDS011;6168;42.658;23.298;2022-07-22T10:37:59;5.63;;;1.90;;
12210;SDS011;6168;42.658;23.298;2022-07-22T10:40:29;3.92;;;1.95;;
12210;SDS011;6168;42.658;23.298;2022-07-22T10:43:04;3.65;;;1.90;;
12210;SDS011;6168;42.658;23.298;2022-07-22T10:45:35;6.05;;;1.67;;
12210;SDS011;6168;42.658;23.298;2022-07-22T10:48:05;4.32;;;1.25;;
12210;SDS011;6168;42.658;23.298;2022-07-22T10:50:47;4.30;;;1.70;;
12210;SDS011;6168;42.658;23.298;2022-07-22T10:53:21;2.60;;;1.55;;
12210;SDS011;6168;42.658;23.298;2022-07-22T10:56:06;1.98;;;1.88;;
12210;SDS011;6168;42.658;23.298;2022-07-22T10:58:42;3.15;;;1.40;;
12210;SDS011;6168;42.658;23.298;2022-07-22T11:01:23;1.52;;;1.42;;
12210;SDS011;6168;42.658;23.298;2022-07-22T11:03:51;2.83;;;1.80;;
12210;SDS011;6168;42.658;23.298;2022-07-22T11:06:25;2.35;;;1.40;;
12210;SDS011;6168;42.658;23.298;2022-07-22T11:08:55;2.63;;;1.40;;
12210;SDS011;6168;42.658;23.298;2022-07-22T11:11:33;2.60;;;1.35;;
12210;SDS011;6168;42.658;23.298;2022-07-22T11:14:13;3.67;;;1.40;;
12210;SDS011;6168;42.658;23.298;2022-07-22T11:16:47;3.75;;;1.50;;
12210;SDS011;6168;42.658;23.298;2022-07-22T11:19:19;1.63;;;1.33;;
12210;SDS011;6168;42.658;23.298;2022-07-22T11:21:48;0.98;;;0.98;;
12210;SDS011;6168;42.658;23.298;2022-07-22T11:24:17;2.17;;;1.30;;
12210;SDS011;6168;42.658;23.298;2022-07-22T11:26:45;2.38;;;1.65;;
12210;SDS011;6168;42.658;23.298;2022-07-22T11:29:15;2.58;;;1.63;;
12210;SDS011;6168;42.658;23.298;2022-07-22T11:31:43;2.13;;;1.50;;
12210;SDS011;6168;42.658;23.298;2022-07-22T11:34:12;4.35;;;1.70;;
12210;SDS011;6168;42.658;23.298;2022-07-22T11:36:42;1.42;;;1.27;;
12210;SDS011;6168;42.658;23.298;2022-07-22T11:39:10;2.28;;;1.58;;
12210;SDS011;6168;42.658;23.298;2022-07-22T11:41:38;1.60;;;1.20;;
12210;SDS011;6168;42.658;23.298;2022-07-22T11:44:06;7.57;;;1.58;;
12210;SDS011;6168;42.658;23.298;2022-07-22T11:46:35;4.82;;;2.03;;
12210;SDS011;6168;42.658;23.298;2022-07-22T11:49:03;3.95;;;1.38;;
12210;SDS011;6168;42.658;23.298;2022-07-22T11:51:33;4.50;;;1.55;;
12210;SDS011;6168;42.658;23.298;2022-07-22T11:54:01;2.30;;;1.30;;
12210;SDS011;6168;42.658;23.298;2022-07-22T11:56:29;1.85;;;1.40;;
12210;SDS011;6168;42.658;23.298;2022-07-22T11:58:57;2.65;;;1.30;;
12210;SDS011;6168;42.658;23.298;2022-07-22T12:01:27;2.55;;;1.38;;
12210;SDS011;6168;42.658;23.298;2022-07-22T12:03:56;1.48;;;0.93;;
12210;SDS011;6168;42.658;23.298;2022-07-22T12:06:24;3.75;;;1.40;;
12210;SDS011;6168;42.658;23.298;2022-07-22T12:08:55;1.70;;;1.13;;
12210;SDS011;6168;42.658;23.298;2022-07-22T12:11:27;1.95;;;1.20;;
12210;SDS011;6168;42.658;23.298;2022-07-22T12:13:55;1.55;;;1.17;;
12210;SDS011;6168;42.658;23.298;2022-07-22T12:16:23;3.78;;;1.20;;
12210;SDS011;6168;42.658;23.298;2022-07-22T12:18:55;4.55;;;1.38;;
12210;SDS011;6168;42.658;23.298;2022-07-22T12:21:23;1.80;;;1.70;;
12210;SDS011;6168;42.658;23.298;2022-07-22T12:23:54;1.90;;;1.42;;
12210;SDS011;6168;42.658;23.298;2022-07-22T12:26:38;5.03;;;1.33;;
12210;SDS011;6168;42.658;23.298;2022-07-22T12:29:12;2.17;;;1.10;;
12210;SDS011;6168;42.658;23.298;2022-07-22T12:31:43;3.17;;;1.67;;
12210;SDS011;6168;42.658;23.298;2022-07-22T12:34:11;2.58;;;1.27;;
12210;SDS011;6168;42.658;23.298;2022-07-22T12:36:38;3.78;;;1.40;;
12210;SDS011;6168;42.658;23.298;2022-07-22T12:39:15;4.25;;;1.55;;
12210;SDS011;6168;42.658;23.298;2022-07-22T12:41:47;2.28;;;1.83;;
12210;SDS011;6168;42.658;23.298;2022-07-22T12:44:16;3.47;;;1.45;;
12210;SDS011;6168;42.658;23.298;2022-07-22T12:46:44;1.95;;;1.63;;
12210;SDS011;6168;42.658;23.298;2022-07-22T12:49:12;1.83;;;1.58;;
12210;SDS011;6168;42.658;23.298;2022-07-22T12:51:39;3.38;;;1.55;;
12210;SDS011;6168;42.658;23.298;2022-07-22T12:54:05;6.60;;;1.45;;
12210;SDS011;6168;42.658;23.298;2022-07-22T12:56:34;2.08;;;1.80;;
12210;SDS011;6168;42.658;23.298;2022-07-22T12:59:01;1.77;;;1.35;;
12210;SDS011;6168;42.658;23.298;2022-07-22T13:01:28;3.50;;;1.20;;
12210;SDS011;6168;42.658;23.298;2022-07-22T13:03:54;3.83;;;1.30;;
12210;SDS011;6168;42.658;23.298;2022-07-22T13:06:21;3.05;;;1.48;;
12210;SDS011;6168;42.658;23.298;2022-07-22T13:08:48;3.33;;;1.40;;
12210;SDS011;6168;42.658;23.298;2022-07-22T13:11:15;3.60;;;1.00;;
12210;SDS011;6168;42.658;23.298;2022-07-22T13:13:43;2.78;;;1.67;;
12210;SDS011;6168;42.658;23.298;2022-07-22T13:16:10;3.88;;;1.55;;
12210;SDS011;6168;42.658;23.298;2022-07-22T13:18:37;3.53;;;1.40;;
12210;SDS011;6168;42.658;23.298;2022-07-22T13:21:04;2.55;;;1.55;;
12210;SDS011;6168;42.658;23.298;2022-07-22T13:23:31;4.00;;;1.55;;
12210;SDS011;6168;42.658;23.298;2022-07-22T13:25:58;2.58;;;1.23;;
12210;SDS011;6168;42.658;23.298;2022-07-22T13:28:25;6.90;;;1.38;;
12210;SDS011;6168;42.658;23.298;2022-07-22T13:30:53;2.05;;;1.08;;
12210;SDS011;6168;42.658;23.298;2022-07-22T13:33:21;1.75;;;1.10;;
12210;SDS011;6168;42.658;23.298;2022-07-22T13:35:48;1.95;;;1.10;;
12210;SDS011;6168;42.658;23.298;2022-07-22T13:38:15;1.17;;;1.05;;
12210;SDS011;6168;42.658;23.298;2022-07-22T13:40:42;4.93;;;1.00;;
12210;SDS011;6168;42.658;23.298;2022-07-22T13:43:15;4.57;;;1.60;;
12210;SDS011;6168;42.658;23.298;2022-07-22T13:45:42;4.10;;;1.33;;
12210;SDS011;6168;42.658;23.298;2022-07-22T13:48:10;3.40;;;1.40;;
12210;SDS011;6168;42.658;23.298;2022-07-22T13:50:37;2.50;;;1.63;;
12210;SDS011;6168;42.658;23.298;2022-07-22T13:53:04;5.75;;;1.50;;
12210;SDS011;6168;42.658;23.298;2022-07-22T13:55:31;3.70;;;1.15;;
12210;SDS011;6168;42.658;23.298;2022-07-22T13:57:58;1.60;;;1.50;;
12210;SDS011;6168;42.658;23.298;2022-07-22T14:00:25;6.50;;;1.52;;
12210;SDS011;6168;42.658;23.298;2022-07-22T14:02:52;3.78;;;1.67;;
12210;SDS011;6168;42.658;23.298;2022-07-22T14:05:21;3.03;;;1.48;;
12210;SDS011;6168;42.658;23.298;2022-07-22T14:07:48;3.15;;;1.60;;
12210;SDS011;6168;42.658;23.298;2022-07-22T14:10:14;2.85;;;1.55;;
12210;SDS011;6168;42.658;23.298;2022-07-22T14:12:41;1.80;;;1.52;;
12210;SDS011;6168;42.658;23.298;2022-07-22T14:15:09;4.75;;;1.30;;
12210;SDS011;6168;42.658;23.298;2022-07-22T14:17:36;2.13;;;1.67;;
12210;SDS011;6168;42.658;23.298;2022-07-22T14:20:04;2.72;;;1.55;;
12210;SDS011;6168;42.658;23.298;2022-07-22T14:22:34;3.70;;;1.70;;
12210;SDS011;6168;42.658;23.298;2022-07-22T14:25:01;6.00;;;1.77;;
12210;SDS011;6168;42.658;23.298;2022-07-22T14:27:29;6.45;;;1.63;;
12210;SDS011;6168;42.658;23.298;2022-07-22T14:29:55;3.78;;;1.60;;
12210;SDS011;6168;42.658;23.298;2022-07-22T14:32:22;1.83;;;1.70;;
12210;SDS011;6168;42.658;23.298;2022-07-22T14:34:49;1.30;;;1.20;;
12210;SDS011;6168;42.658;23.298;2022-07-22T14:37:16;3.38;;;2.00;;
12210;SDS011;6168;42.658;23.298;2022-07-22T14:39:44;2.67;;;1.27;;
12210;SDS011;6168;42.658;23.298;2022-07-22T14:42:11;2.13;;;1.48;;
12210;SDS011;6168;42.658;23.298;2022-07-22T14:44:38;3.85;;;1.75;;
12210;SDS011;6168;42.658;23.298;2022-07-22T14:47:05;1.95;;;1.30;;
12210;SDS011;6168;42.658;23.298;2022-07-22T14:49:32;3.70;;;1.27;;
12210;SDS011;6168;42.658;23.298;2022-07-22T14:51:59;1.80;;;1.13;;
12210;SDS011;6168;42.658;23.298;2022-07-22T14:54:25;1.60;;;1.35;;
12210;SDS011;6168;42.658;23.298;2022-07-22T14:56:54;4.57;;;1.45;;
12210;SDS011;6168;42.658;23.298;2022-07-22T14:59:21;1.67;;;1.00;;
12210;SDS011;6168;42.658;23.298;2022-07-22T15:01:50;2.33;;;1.15;;
12210;SDS011;6168;42.658;23.298;2022-07-22T15:04:17;4.30;;;1.30;;
12210;SDS011;6168;42.658;23.298;2022-07-22T15:06:44;1.38;;;0.93;;
12210;SDS011;6168;42.658;23.298;2022-07-22T15:09:11;2.67;;;1.13;;
12210;SDS011;6168;42.658;23.298;2022-07-22T15:11:38;1.65;;;1.17;;
12210;SDS011;6168;42.658;23.298;2022-07-22T15:14:07;1.15;;;0.95;;
12210;SDS011;6168;42.658;23.298;2022-07-22T15:16:33;2.65;;;1.15;;
12210;SDS011;6168;42.658;23.298;2022-07-22T15:19:00;1.10;;;1.00;;
12210;SDS011;6168;42.658;23.298;2022-07-22T15:21:27;5.97;;;1.25;;
12210;SDS011;6168;42.658;23.298;2022-07-22T15:23:54;5.63;;;1.45;;
12210;SDS011;6168;42.658;23.298;2022-07-22T15:26:21;5.97;;;1.35;;
12210;SDS011;6168;42.658;23.298;2022-07-22T15:28:48;3.42;;;1.25;;
12210;SDS011;6168;42.658;23.298;2022-07-22T15:31:18;1.27;;;1.17;;
12210;SDS011;6168;42.658;23.298;2022-07-22T15:33:45;1.35;;;0.93;;
12210;SDS011;6168;42.658;23.298;2022-07-22T15:36:12;1.75;;;1.35;;
12210;SDS011;6168;42.658;23.298;2022-07-22T15:38:39;4.72;;;1.35;;
12210;SDS011;6168;42.658;23.298;2022-07-22T15:41:06;2.30;;;1.35;;
12210;SDS011;6168;42.658;23.298;2022-07-22T15:43:34;5.15;;;1.15;;
12210;SDS011;6168;42.658;23.298;2022-07-22T15:46:01;6.90;;;1.58;;
12210;SDS011;6168;42.658;23.298;2022-07-22T15:48:29;2.45;;;0.90;;
12210;SDS011;6168;42.658;23.298;2022-07-22T15:50:56;3.33;;;1.77;;
12210;SDS011;6168;42.658;23.298;2022-07-22T15:53:23;4.38;;;1.48;;
12210;SDS011;6168;42.658;23.298;2022-07-22T15:55:50;3.22;;;1.33;;
12210;SDS011;6168;42.658;23.298;2022-07-22T15:58:17;3.17;;;1.00;;
12210;SDS011;6168;42.658;23.298;2022-07-22T16:01:01;3.90;;;1.40;;
12210;SDS011;6168;42.658;23.298;2022-07-22T16:03:29;1.63;;;1.10;;
12210;SDS011;6168;42.658;23.298;2022-07-22T16:05:56;3.38;;;1.42;;
12210;SDS011;6168;42.658;23.298;2022-07-22T16:08:25;1.85;;;1.13;;
12210;SDS011;6168;42.658;23.298;2022-07-22T16:10:52;1.70;;;1.17;;
12210;SDS011;6168;42.658;23.298;2022-07-22T16:13:19;1.40;;;0.93;;
12210;SDS011;6168;42.658;23.298;2022-07-22T16:15:46;3.97;;;1.38;;
12210;SDS011;6168;42.658;23.298;2022-07-22T16:18:13;2.78;;;1.30;;
12210;SDS011;6168;42.658;23.298;2022-07-22T16:20:41;2.15;;;1.20;;
12210;SDS011;6168;42.658;23.298;2022-07-22T16:23:09;1.83;;;1.20;;
12210;SDS011;6168;42.658;23.298;2022-07-22T16:25:36;4.93;;;1.25;;
12210;SDS011;6168;42.658;23.298;2022-07-22T16:28:03;2.70;;;1.13;;
12210;SDS011;6168;42.658;23.298;2022-07-22T16:30:30;3.05;;;0.90;;
12210;SDS011;6168;42.658;23.298;2022-07-22T16:32:58;3.10;;;0.90;;
12210;SDS011;6168;42.658;23.298;2022-07-22T16:35:25;1.33;;;1.20;;
12210;SDS011;6168;42.658;23.298;2022-07-22T16:37:53;2.22;;;1.15;;
12210;SDS011;6168;42.658;23.298;2022-07-22T16:40:20;3.90;;;1.05;;
12210;SDS011;6168;42.658;23.298;2022-07-22T16:42:47;3.10;;;1.33;;
12210;SDS011;6168;42.658;23.298;2022-07-22T16:45:14;5.88;;;1.83;;
12210;SDS011;6168;42.658;23.298;2022-07-22T16:47:41;1.33;;;1.10;;
12210;SDS011;6168;42.658;23.298;2022-07-22T16:50:08;2.33;;;1.10;;
12210;SDS011;6168;42.658;23.298;2022-07-22T16:52:35;2.67;;;1.20;;
12210;SDS011;6168;42.658;23.298;2022-07-22T16:55:04;4.82;;;1.48;;
12210;SDS011;6168;42.658;23.298;2022-07-22T16:57:31;3.13;;;1.20;;
12210;SDS011;6168;42.658;23.298;2022-07-22T16:59:58;1.95;;;1.80;;
12210;SDS011;6168;42.658;23.298;2022-07-22T17:02:25;3.42;;;1.23;;
12210;SDS011;6168;42.658;23.298;2022-07-22T17:04:52;3.30;;;1.20;;
12210;SDS011;6168;42.658;23.298;2022-07-22T17:07:19;4.57;;;1.15;;
12210;SDS011;6168;42.658;23.298;2022-07-22T17:09:46;5.38;;;1.55;;
12210;SDS011;6168;42.658;23.298;2022-07-22T17:12:14;3.38;;;1.40;;
12210;SDS011;6168;42.658;23.298;2022-07-22T17:14:41;2.95;;;1.15;;
12210;SDS011;6168;42.658;23.298;2022-07-22T17:17:08;3.33;;;1.17;;
12210;SDS011;6168;42.658;23.298;2022-07-22T17:19:34;6.30;;;1.58;;
12210;SDS011;6168;42.658;23.298;2022-07-22T17:22:02;1.95;;;1.33;;
12210;SDS011;6168;42.658;23.298;2022-07-22T17:24:28;1.85;;;1.75;;
12210;SDS011;6168;42.658;23.298;2022-07-22T17:26:55;1.60;;;1.45;;
12210;SDS011;6168;42.658;23.298;2022-07-22T17:29:24;4.05;;;1.33;;
12210;SDS011;6168;42.658;23.298;2022-07-22T17:31:51;4.03;;;1.20;;
12210;SDS011;6168;42.658;23.298;2022-07-22T17:34:18;3.30;;;1.48;;
12210;SDS011;6168;42.658;23.298;2022-07-22T17:36:45;4.47;;;1.67;;
12210;SDS011;6168;42.658;23.298;2022-07-22T17:39:12;2.97;;;1.85;;
12210;SDS011;6168;42.658;23.298;2022-07-22T17:41:38;4.30;;;1.75;;
12210;SDS011;6168;42.658;23.298;2022-07-22T17:44:06;7.63;;;2.08;;
12210;SDS011;6168;42.658;23.298;2022-07-22T17:46:34;6.45;;;1.63;;
12210;SDS011;6168;42.658;23.298;2022-07-22T17:49:01;3.95;;;1.70;;
12210;SDS011;6168;42.658;23.298;2022-07-22T17:51:28;6.10;;;2.15;;
12210;SDS011;6168;42.658;23.298;2022-07-22T17:53:54;4.18;;;1.80;;
12210;SDS011;6168;42.658;23.298;2022-07-22T17:56:21;4.40;;;1.98;;
12210;SDS011;6168;42.658;23.298;2022-07-22T17:58:48;2.47;;;2.00;;
12210;SDS011;6168;42.658;23.298;2022-07-22T18:01:15;5.28;;;2.00;;
12210;SDS011;6168;42.658;23.298;2022-07-22T18:03:44;3.38;;;2.00;;
12210;SDS011;6168;42.658;23.298;2022-07-22T18:06:11;2.47;;;1.65;;
12210;SDS011;6168;42.658;23.298;2022-07-22T18:08:38;4.68;;;1.40;;
12210;SDS011;6168;42.658;23.298;2022-07-22T18:11:05;4.00;;;1.80;;
12210;SDS011;6168;42.658;23.298;2022-07-22T18:13:33;9.95;;;2.60;;
12210;SDS011;6168;42.658;23.298;2022-07-22T18:16:00;7.53;;;2.15;;
12210;SDS011;6168;42.658;23.298;2022-07-22T18:18:27;4.07;;;1.70;;
12210;SDS011;6168;42.658;23.298;2022-07-22T18:20:55;4.40;;;2.60;;
12210;SDS011;6168;42.658;23.298;2022-07-22T18:23:22;2.03;;;1.35;;
12210;SDS011;6168;42.658;23.298;2022-07-22T18:25:49;2.13;;;1.85;;
12210;SDS011;6168;42.658;23.298;2022-07-22T18:28:16;3.33;;;1.95;;
12210;SDS011;6168;42.658;23.298;2022-07-22T18:30:44;2.72;;;1.73;;
12210;SDS011;6168;42.658;23.298;2022-07-22T18:33:12;3.10;;;1.75;;
12210;SDS011;6168;42.658;23.298;2022-07-22T18:35:40;5.57;;;2.45;;
12210;SDS011;6168;42.658;23.298;2022-07-22T18:38:08;4.15;;;2.50;;
12210;SDS011;6168;42.658;23.298;2022-07-22T18:40:35;6.00;;;2.95;;
12210;SDS011;6168;42.658;23.298;2022-07-22T18:43:02;7.75;;;3.13;;
12210;SDS011;6168;42.658;23.298;2022-07-22T18:45:29;7.38;;;3.42;;
12210;SDS011;6168;42.658;23.298;2022-07-22T18:47:55;8.05;;;3.65;;
12210;SDS011;6168;42.658;23.298;2022-07-22T18:50:23;8.23;;;4.35;;
12210;SDS011;6168;42.658;23.298;2022-07-22T18:52:50;18.38;;;5.10;;
12210;SDS011;6168;42.658;23.298;2022-07-22T18:55:18;7.15;;;3.80;;
12210;SDS011;6168;42.658;23.298;2022-07-22T18:57:46;8.18;;;3.53;;